createdAt,value
2023-05-24T00:00:22.822Z,58.86
2023-05-24T00:02:49.962Z,58.65
2023-05-24T00:05:18.722Z,58.80
2023-05-24T00:07:45.693Z,58.87
2023-05-24T00:10:12.533Z,59.45
2023-05-24T00:12:39.222Z,59.28
2023-05-24T00:15:06.621Z,59.38
2023-05-24T00:17:34.759Z,59.70
2023-05-24T00:20:01.540Z,59.76
2023-05-24T00:22:28.250Z,59.51
2023-05-24T00:24:54.928Z,59.95
2023-05-24T00:27:21.587Z,59.68
2023-05-24T00:29:48.185Z,59.65
2023-05-24T00:32:15.052Z,59.41
2023-05-24T00:34:41.804Z,59.60
2023-05-24T00:37:08.537Z,59.28
2023-05-24T00:39:35.343Z,59.47
2023-05-24T00:42:02.395Z,59.50
2023-05-24T00:44:29.594Z,59.31
2023-05-24T00:46:56.734Z,58.72
2023-05-24T00:49:23.850Z,58.88
2023-05-24T00:51:52.460Z,59.17
2023-05-24T00:54:19.302Z,59.13
2023-05-24T00:56:47.445Z,58.69
2023-05-24T00:59:14.585Z,58.96
2023-05-24T01:01:42.048Z,59.21
2023-05-24T01:04:08.920Z,59.23
2023-05-24T01:06:50.225Z,58.96
2023-05-24T01:09:30.833Z,59.08
2023-05-24T01:12:25.793Z,59.41
2023-05-24T01:15:05.020Z,58.80
2023-05-24T01:18:05.524Z,59.30
2023-05-24T01:20:34.341Z,59.45
2023-05-24T01:23:07.295Z,59.82
2023-05-24T01:25:52.535Z,60.04
2023-05-24T01:28:21.265Z,59.78
2023-05-24T01:30:48.420Z,59.63
2023-05-24T01:33:16.073Z,59.73
2023-05-24T01:35:42.878Z,59.67
2023-05-24T01:38:13.234Z,60.05
2023-05-24T01:40:41.711Z,59.87
2023-05-24T01:43:36.112Z,60.11
2023-05-24T01:46:21.495Z,60.20
2023-05-24T01:49:06.754Z,60.08
2023-05-24T01:51:41.442Z,59.91
2023-05-24T01:54:12.359Z,60.27
2023-05-24T01:56:41.173Z,60.10
2023-05-24T01:59:09.022Z,60.13
2023-05-24T02:01:35.947Z,60.14
2023-05-24T02:04:03.197Z,60.29
2023-05-24T02:06:29.898Z,60.68
2023-05-24T02:08:56.572Z,60.59
2023-05-24T02:11:23.431Z,61.04
2023-05-24T02:13:50.142Z,60.93
2023-05-24T02:16:18.175Z,61.38
2023-05-24T02:18:46.767Z,61.03
2023-05-24T02:21:13.953Z,61.23
2023-05-24T02:23:43.488Z,60.98
2023-05-24T02:26:12.615Z,60.88
2023-05-24T02:28:39.296Z,61.26
2023-05-24T02:31:06.307Z,61.05
2023-05-24T02:33:33.803Z,61.33
2023-05-24T02:36:00.727Z,61.39
2023-05-24T02:38:27.450Z,61.29
2023-05-24T02:40:54.150Z,61.43
2023-05-24T02:43:20.808Z,61.04
2023-05-24T02:45:47.596Z,61.35
2023-05-24T02:48:14.291Z,61.11
2023-05-24T02:50:41.133Z,61.15
2023-05-24T02:53:08.789Z,61.13
2023-05-24T02:55:35.513Z,60.55
2023-05-24T02:58:02.918Z,60.28
2023-05-24T03:00:31.040Z,60.40
2023-05-24T03:03:02.618Z,60.24
2023-05-24T03:05:29.546Z,59.85
2023-05-24T03:07:56.744Z,60.54
2023-05-24T03:10:23.569Z,60.04
2023-05-24T03:12:50.347Z,60.37
2023-05-24T03:15:17.091Z,60.24
2023-05-24T03:17:43.774Z,60.18
2023-05-24T03:20:11.722Z,60.01
2023-05-24T03:22:38.884Z,60.05
2023-05-24T03:25:08.727Z,60.13
2023-05-24T03:27:36.590Z,60.58
2023-05-24T03:30:03.749Z,60.49
2023-05-24T03:32:35.138Z,60.19
2023-05-24T03:35:02.643Z,60.10
2023-05-24T03:37:29.421Z,60.29
2023-05-24T03:39:56.062Z,60.55
2023-05-24T03:42:43.006Z,61.20
2023-05-24T03:45:10.890Z,61.21
2023-05-24T03:47:38.193Z,61.16
2023-05-24T03:50:05.418Z,60.85
2023-05-24T03:52:32.140Z,60.97
2023-05-24T03:54:58.825Z,61.00
2023-05-24T03:57:25.564Z,61.09
2023-05-24T03:59:52.731Z,61.47
2023-05-24T04:02:19.442Z,61.25
2023-05-24T04:04:46.281Z,61.47
2023-05-24T04:07:15.367Z,61.11
2023-05-24T04:09:42.878Z,61.11
2023-05-24T04:12:09.652Z,60.49
2023-05-24T04:14:36.402Z,61.17
2023-05-24T04:17:05.741Z,60.77
2023-05-24T04:19:32.567Z,60.65
2023-05-24T04:21:59.694Z,60.02
2023-05-24T04:24:26.492Z,59.90
2023-05-24T04:26:53.289Z,59.88
2023-05-24T04:29:20.021Z,59.61
2023-05-24T04:31:48.905Z,59.57
2023-05-24T04:34:15.775Z,59.11
2023-05-24T04:36:42.863Z,59.34
2023-05-24T04:39:11.411Z,59.57
2023-05-24T04:41:38.681Z,59.19
2023-05-24T04:44:05.424Z,59.34
2023-05-24T04:46:32.101Z,58.51
2023-05-24T04:48:59.128Z,58.68
2023-05-24T04:51:26.040Z,59.05
2023-05-24T04:53:52.698Z,58.57
2023-05-24T04:56:19.600Z,58.00
2023-05-24T04:58:47.616Z,57.42
2023-05-24T05:01:14.439Z,57.70
2023-05-24T05:03:41.512Z,57.35
2023-05-24T05:06:08.335Z,57.56
2023-05-24T05:08:34.991Z,58.04
2023-05-24T05:11:02.830Z,57.22
2023-05-24T05:13:29.569Z,57.18
2023-05-24T05:15:56.257Z,57.35
2023-05-24T05:18:22.881Z,57.09
2023-05-24T05:20:49.559Z,56.31
2023-05-24T05:23:16.368Z,55.99
2023-05-24T05:25:43.105Z,56.23
2023-05-24T05:28:09.850Z,55.33
2023-05-24T05:30:36.621Z,55.01
2023-05-24T05:33:05.882Z,54.49
2023-05-24T05:35:33.350Z,53.89
2023-05-24T05:38:00.083Z,53.01
2023-05-24T05:40:26.772Z,52.26
2023-05-24T05:42:53.566Z,52.28
2023-05-24T05:45:20.357Z,52.26
2023-05-24T05:47:47.125Z,51.63
2023-05-24T05:50:13.894Z,51.48
2023-05-24T05:52:41.058Z,50.90
2023-05-24T05:55:08.768Z,50.75
2023-05-24T05:57:35.539Z,49.94
2023-05-24T06:00:02.566Z,49.47
2023-05-24T06:02:38.746Z,48.81
2023-05-24T06:05:05.904Z,47.93
2023-05-24T06:07:32.856Z,47.01
2023-05-24T06:09:59.667Z,47.12
2023-05-24T06:12:26.735Z,46.08
2023-05-24T06:14:54.240Z,46.06
2023-05-24T06:17:24.222Z,45.30
2023-05-24T06:19:53.673Z,45.00
2023-05-24T06:22:21.587Z,44.18
2023-05-24T06:24:49.229Z,43.96
2023-05-24T06:27:15.977Z,43.79
2023-05-24T06:29:42.698Z,43.52
2023-05-24T06:32:09.395Z,42.61
2023-05-24T06:34:36.136Z,41.49
2023-05-24T06:37:04.157Z,41.68
2023-05-24T06:39:30.925Z,41.59
2023-05-24T06:41:57.689Z,41.47
2023-05-24T06:44:31.918Z,40.87
2023-05-24T06:46:58.744Z,40.69
2023-05-24T06:49:25.833Z,40.05
2023-05-24T06:51:52.917Z,40.03
2023-05-24T06:54:19.890Z,39.25
2023-05-24T06:56:46.702Z,39.38
2023-05-24T06:59:13.481Z,38.25
2023-05-24T07:01:42.729Z,37.84
2023-05-24T07:04:09.969Z,38.68
2023-05-24T07:06:37.629Z,38.59
2023-05-24T07:09:05.031Z,38.27
2023-05-24T07:11:32.074Z,35.88
2023-05-24T07:13:58.866Z,37.09
2023-05-24T07:16:25.591Z,35.61
2023-05-24T07:18:52.403Z,36.09
2023-05-24T07:21:19.111Z,35.11
2023-05-24T07:23:46.039Z,36.09
2023-05-24T07:26:12.815Z,36.21
2023-05-24T07:28:40.502Z,36.03
2023-05-24T07:31:09.903Z,36.46
2023-05-24T07:33:37.922Z,37.19
2023-05-24T07:36:07.112Z,36.21
2023-05-24T07:38:34.867Z,35.46
2023-05-24T07:41:06.328Z,34.41
2023-05-24T07:43:33.324Z,34.19
2023-05-24T07:46:00.055Z,33.79
2023-05-24T07:48:26.971Z,35.18
2023-05-24T07:50:55.005Z,34.45
2023-05-24T07:53:22.960Z,33.30
2023-05-24T07:55:50.405Z,32.51
2023-05-24T07:58:17.062Z,31.96
2023-05-24T08:00:43.755Z,32.23
2023-05-24T08:03:13.447Z,32.06
2023-05-24T08:05:41.597Z,31.36
2023-05-24T08:08:08.446Z,31.29
2023-05-24T08:10:35.182Z,30.41
2023-05-24T08:13:01.943Z,30.61
2023-05-24T08:15:28.873Z,31.16
2023-05-24T08:17:55.571Z,30.54
2023-05-24T08:20:22.359Z,29.97
2023-05-24T08:22:54.830Z,29.70
2023-05-24T08:25:21.529Z,28.42
2023-05-24T08:27:48.233Z,27.50
2023-05-24T08:30:15.057Z,27.51
2023-05-24T08:32:41.961Z,27.33
2023-05-24T08:35:20.291Z,27.07
2023-05-24T08:37:48.957Z,26.35
2023-05-24T08:40:15.872Z,26.89
2023-05-24T08:42:42.810Z,26.86
2023-05-24T08:45:13.076Z,26.64
2023-05-24T08:47:40.693Z,26.42
2023-05-24T08:50:08.611Z,25.46
2023-05-24T08:52:36.494Z,25.07
2023-05-24T08:55:06.862Z,24.95
2023-05-24T08:57:35.736Z,25.85
2023-05-24T09:00:02.549Z,23.92
2023-05-24T09:02:32.313Z,24.64
2023-05-24T09:05:00.170Z,24.15
2023-05-24T09:07:33.045Z,23.56
2023-05-24T09:10:08.516Z,22.97
2023-05-24T09:12:40.538Z,23.50
2023-05-24T09:15:08.887Z,22.85
2023-05-24T09:17:37.353Z,23.30
2023-05-24T09:20:10.002Z,22.67
2023-05-24T09:22:41.836Z,23.62
2023-05-24T09:25:11.327Z,22.60
2023-05-24T09:27:40.567Z,22.83
2023-05-24T09:30:11.019Z,21.93
2023-05-24T09:32:39.801Z,20.28
2023-05-24T09:35:10.419Z,20.38
2023-05-24T09:37:38.777Z,19.57
2023-05-24T09:40:19.355Z,19.50
2023-05-24T09:42:52.755Z,19.49
2023-05-24T09:45:21.319Z,19.35
2023-05-24T09:47:48.284Z,18.26
2023-05-24T09:50:17.436Z,17.64
2023-05-24T09:52:45.166Z,18.10
2023-05-24T09:55:20.188Z,17.16
2023-05-24T09:58:05.383Z,16.53
2023-05-24T10:00:41.331Z,15.79
2023-05-24T10:03:12.948Z,15.84
2023-05-24T10:05:44.420Z,16.45
2023-05-24T10:08:11.989Z,15.84
2023-05-24T10:10:38.619Z,16.75
2023-05-24T10:13:05.333Z,16.17
2023-05-24T10:15:32.110Z,16.83
2023-05-24T10:18:10.425Z,16.29
2023-05-24T10:20:41.134Z,17.28
2023-05-24T10:23:10.397Z,15.28
2023-05-24T10:25:42.912Z,16.31
2023-05-24T10:28:12.960Z,16.05
2023-05-24T10:30:52.817Z,16.36
2023-05-24T10:33:21.395Z,15.20
2023-05-24T10:35:48.562Z,14.23
2023-05-24T10:38:15.486Z,14.61
2023-05-24T10:40:43.610Z,13.75
2023-05-24T10:43:10.439Z,13.47
2023-05-24T10:45:41.328Z,14.23
2023-05-24T10:48:28.270Z,13.59
2023-05-24T10:50:55.557Z,13.93
2023-05-24T10:53:26.266Z,14.67
2023-05-24T10:55:59.153Z,16.91
2023-05-24T10:58:58.147Z,16.26
2023-05-24T11:01:27.710Z,14.57
2023-05-24T11:04:17.061Z,14.54
2023-05-24T11:07:03.753Z,15.01
2023-05-24T11:09:31.738Z,14.82
2023-05-24T11:12:04.203Z,14.38
2023-05-24T11:14:32.110Z,13.44
2023-05-24T11:17:00.342Z,14.19
2023-05-24T11:19:36.180Z,12.86
2023-05-24T11:22:14.949Z,13.03
2023-05-24T11:24:42.704Z,13.96
2023-05-24T11:27:11.916Z,14.06
2023-05-24T11:29:43.443Z,12.56
2023-05-24T11:32:14.277Z,12.59
2023-05-24T11:34:42.021Z,12.63
2023-05-24T11:37:09.395Z,12.20
2023-05-24T11:39:37.482Z,12.36
2023-05-24T11:42:05.127Z,12.33
2023-05-24T11:44:32.573Z,13.59
2023-05-24T11:47:03.399Z,13.74
2023-05-24T11:49:30.280Z,13.25
2023-05-24T11:51:58.595Z,12.17
2023-05-24T11:54:27.040Z,12.60
2023-05-24T11:56:54.776Z,13.48
2023-05-24T11:59:26.598Z,12.79
2023-05-24T12:02:02.579Z,12.58
2023-05-24T12:04:30.466Z,13.36
2023-05-24T12:06:58.021Z,13.84
2023-05-24T12:09:25.571Z,14.19
2023-05-24T12:11:53.465Z,15.83
2023-05-24T12:14:27.620Z,15.92
2023-05-24T12:16:56.302Z,17.16
2023-05-24T12:19:32.877Z,17.56
2023-05-24T12:22:06.803Z,17.14
2023-05-24T12:24:34.247Z,17.69
2023-05-24T12:27:03.022Z,18.85
2023-05-24T12:29:37.741Z,20.18
2023-05-24T12:32:04.980Z,21.16
2023-05-24T12:34:32.462Z,18.73
2023-05-24T12:36:59.924Z,20.01
2023-05-24T12:39:32.082Z,21.42
2023-05-24T12:42:01.534Z,22.09
2023-05-24T12:44:33.942Z,21.28
2023-05-24T12:47:03.512Z,21.48
2023-05-24T12:49:31.868Z,22.89
2023-05-24T12:51:58.934Z,24.59
2023-05-24T12:54:27.834Z,23.97
2023-05-24T12:56:56.898Z,25.31
2023-05-24T12:59:25.538Z,24.88
2023-05-24T13:01:52.817Z,25.74
2023-05-24T13:04:21.915Z,25.82
2023-05-24T13:06:49.361Z,25.48
2023-05-24T13:09:21.014Z,25.62
2023-05-24T13:11:47.758Z,24.53
2023-05-24T13:14:16.479Z,26.35
2023-05-24T13:16:44.290Z,24.08
2023-05-24T13:19:11.893Z,25.54
2023-05-24T13:21:39.129Z,24.55
2023-05-24T13:24:06.927Z,24.60
2023-05-24T13:26:37.909Z,24.03
2023-05-24T13:29:39.271Z,25.29
2023-05-24T13:31:55.480Z,25.36
2023-05-24T13:34:26.186Z,27.41
2023-05-24T13:36:54.130Z,27.63
2023-05-24T13:39:22.290Z,27.01
2023-05-24T13:41:49.702Z,27.14
2023-05-24T13:44:16.958Z,27.65
2023-05-24T13:46:43.931Z,27.15
2023-05-24T13:49:11.842Z,27.10
2023-05-24T13:51:39.067Z,28.06
2023-05-24T13:54:07.429Z,27.50
2023-05-24T13:56:35.017Z,28.54
2023-05-24T13:59:03.759Z,26.71
2023-05-24T14:01:31.300Z,28.09
2023-05-24T14:03:58.763Z,28.76
2023-05-24T14:06:25.525Z,28.48
2023-05-24T14:08:52.440Z,28.96
2023-05-24T14:11:19.706Z,27.90
2023-05-24T14:16:16.877Z,28.04
2023-05-24T14:18:43.914Z,28.47
2023-05-24T14:21:10.713Z,28.21
2023-05-24T14:23:37.543Z,28.16
2023-05-24T14:26:04.294Z,28.90
2023-05-24T14:28:31.196Z,29.75
2023-05-24T14:30:57.911Z,30.67
2023-05-24T14:33:24.727Z,29.99
2023-05-24T14:35:51.726Z,30.09
2023-05-24T14:38:18.660Z,30.14
2023-05-24T14:40:48.036Z,30.67
2023-05-24T14:43:15.063Z,31.37
2023-05-24T14:45:42.921Z,32.32
2023-05-24T14:48:11.585Z,32.44
2023-05-24T14:50:39.854Z,32.15
2023-05-24T14:53:12.996Z,32.82
2023-05-24T14:55:42.198Z,33.19
2023-05-24T14:58:11.412Z,33.70
2023-05-24T15:00:38.998Z,33.98
2023-05-24T15:03:06.254Z,33.95
2023-05-24T15:05:33.834Z,34.47
2023-05-24T15:08:00.930Z,33.88
2023-05-24T15:10:27.790Z,34.65
2023-05-24T15:12:54.523Z,34.17
2023-05-24T15:15:22.501Z,34.78
2023-05-24T15:17:49.473Z,35.08
2023-05-24T15:20:16.350Z,35.55
2023-05-24T15:22:43.233Z,35.48
2023-05-24T15:25:10.654Z,33.91
2023-05-24T15:27:37.849Z,33.04
2023-05-24T15:30:05.194Z,32.71
2023-05-24T15:32:32.243Z,32.80
2023-05-24T15:35:00.386Z,33.15
2023-05-24T15:37:27.395Z,33.82
2023-05-24T15:39:54.587Z,34.68
2023-05-24T15:42:23.538Z,33.98
2023-05-24T15:44:50.594Z,33.80
2023-05-24T15:47:18.671Z,33.94
2023-05-24T15:49:47.541Z,34.75
2023-05-24T15:52:14.302Z,34.47
2023-05-24T15:54:41.174Z,33.59
2023-05-24T15:57:07.926Z,34.60
2023-05-24T15:59:36.842Z,34.81
2023-05-24T16:02:04.005Z,34.77
2023-05-24T16:04:30.796Z,34.91
2023-05-24T16:06:57.700Z,35.21
2023-05-24T16:09:24.489Z,35.23
2023-05-24T16:11:51.648Z,34.66
2023-05-24T16:14:18.423Z,35.20
2023-05-24T16:16:45.244Z,35.45
2023-05-24T16:19:12.154Z,34.90
2023-05-24T16:21:39.156Z,35.31
2023-05-24T16:24:06.149Z,35.00
2023-05-24T16:26:33.102Z,35.40
2023-05-24T16:28:59.980Z,35.77
2023-05-24T16:31:26.838Z,35.55
2023-05-24T16:33:53.901Z,35.99
2023-05-24T16:36:21.237Z,36.27
2023-05-24T16:38:48.121Z,35.89
2023-05-24T16:41:14.888Z,35.39
2023-05-24T16:43:41.683Z,35.44
2023-05-24T16:46:08.597Z,35.82
2023-05-24T16:48:35.518Z,36.11
2023-05-24T16:51:02.754Z,36.46
2023-05-24T16:53:29.841Z,36.91
2023-05-24T16:55:57.873Z,36.35
2023-05-24T16:58:28.034Z,36.23
2023-05-24T17:00:55.068Z,36.48
2023-05-24T17:03:27.624Z,36.91
2023-05-24T17:05:56.713Z,36.85
2023-05-24T17:08:25.728Z,37.21
2023-05-24T17:10:56.167Z,37.58
2023-05-24T17:13:23.804Z,37.81
2023-05-24T17:15:53.890Z,38.23
2023-05-24T17:18:27.731Z,38.64
2023-05-24T17:21:02.261Z,39.04
2023-05-24T17:23:33.302Z,39.15
2023-05-24T17:26:01.402Z,39.47
2023-05-24T17:28:28.551Z,40.05
2023-05-24T17:31:00.961Z,39.88
2023-05-24T17:33:31.234Z,40.10
2023-05-24T17:35:58.180Z,39.92
2023-05-24T17:38:25.317Z,40.51
2023-05-24T17:40:59.491Z,40.20
2023-05-24T17:43:32.142Z,40.28
2023-05-24T17:46:04.234Z,40.57
2023-05-24T17:48:41.070Z,40.30
2023-05-24T17:51:09.374Z,40.75
2023-05-24T17:53:38.041Z,40.50
2023-05-24T17:56:05.658Z,40.34
2023-05-24T17:58:36.054Z,40.61
2023-05-24T18:01:08.108Z,40.59
2023-05-24T18:03:39.118Z,40.71
2023-05-24T18:06:07.112Z,40.52
2023-05-24T18:08:37.126Z,40.61
2023-05-24T18:11:10.186Z,40.84
2023-05-24T18:13:38.993Z,40.32
2023-05-24T18:16:10.772Z,40.87
2023-05-24T18:18:37.887Z,40.97
2023-05-24T18:21:05.352Z,40.71
2023-05-24T18:23:34.146Z,41.05
2023-05-24T18:26:03.096Z,41.60
2023-05-24T18:28:30.029Z,41.80
2023-05-24T18:30:56.849Z,41.54
2023-05-24T18:33:23.962Z,41.81
2023-05-24T18:35:50.966Z,41.58
2023-05-24T18:38:17.746Z,41.29
2023-05-24T18:40:44.483Z,41.54
2023-05-24T18:43:11.253Z,41.85
2023-05-24T18:45:38.005Z,42.35
2023-05-24T18:48:06.024Z,42.45
2023-05-24T18:50:32.926Z,42.15
2023-05-24T18:52:59.847Z,42.06
2023-05-24T18:55:26.604Z,42.09
2023-05-24T18:57:53.417Z,41.73
2023-05-24T19:00:22.775Z,42.00
2023-05-24T19:02:49.790Z,41.75
2023-05-24T19:05:16.782Z,42.21
2023-05-24T19:07:43.619Z,42.12
2023-05-24T19:10:10.819Z,42.65
2023-05-24T19:12:37.593Z,42.59
2023-05-24T19:15:04.844Z,42.89
2023-05-24T19:17:32.317Z,42.84
2023-05-24T19:19:59.233Z,43.20
2023-05-24T19:22:27.582Z,43.24
2023-05-24T19:24:55.945Z,43.38
2023-05-24T19:27:23.078Z,43.33
2023-05-24T19:29:50.156Z,43.41
2023-05-24T19:32:17.224Z,43.53
2023-05-24T19:34:44.027Z,43.99
2023-05-24T19:37:10.784Z,43.96
2023-05-24T19:39:37.747Z,43.71
2023-05-24T19:42:04.883Z,43.60
2023-05-24T19:44:31.586Z,43.56
2023-05-24T19:46:58.360Z,43.91
2023-05-24T19:49:25.142Z,43.64
2023-05-24T19:51:52.208Z,43.45
2023-05-24T19:54:19.049Z,43.86
2023-05-24T19:56:49.693Z,43.62
2023-05-24T19:59:17.331Z,44.03
2023-05-24T20:01:44.480Z,44.05
2023-05-24T20:04:12.330Z,43.72
2023-05-24T20:06:39.408Z,43.98
2023-05-24T20:09:06.398Z,43.85
2023-05-24T20:11:33.152Z,43.85
2023-05-24T20:14:00.058Z,44.21
2023-05-24T20:16:27.412Z,43.92
2023-05-24T20:18:54.127Z,43.90
2023-05-24T20:21:21.151Z,44.04
2023-05-24T20:23:49.756Z,43.88
2023-05-24T20:26:16.455Z,44.10
2023-05-24T20:28:43.332Z,43.75
2023-05-24T20:31:10.136Z,44.02
2023-05-24T20:33:38.464Z,44.18
2023-05-24T20:36:05.756Z,44.33
2023-05-24T20:38:32.609Z,44.73
2023-05-24T20:40:59.956Z,44.86
2023-05-24T20:43:26.696Z,44.75
2023-05-24T20:45:54.147Z,45.17
2023-05-24T20:48:21.105Z,45.29
2023-05-24T20:50:48.132Z,45.03
2023-05-24T20:53:14.860Z,45.11
2023-05-24T20:55:41.856Z,45.46
2023-05-24T20:58:08.760Z,45.45
2023-05-24T21:00:36.306Z,45.59
2023-05-24T21:03:04.756Z,45.42
2023-05-24T21:05:31.581Z,45.22
2023-05-24T21:07:58.326Z,45.21
2023-05-24T21:10:27.881Z,45.27
2023-05-24T21:12:54.725Z,45.65
2023-05-24T21:15:21.473Z,45.44
2023-05-24T21:17:48.240Z,45.67
2023-05-24T21:20:15.064Z,45.93
2023-05-24T21:22:42.142Z,45.75
2023-05-24T21:25:09.513Z,46.15
2023-05-24T21:27:36.301Z,46.32
2023-05-24T21:30:03.373Z,46.90
2023-05-24T21:32:31.260Z,46.90
2023-05-24T21:34:58.062Z,47.15
2023-05-24T21:37:25.272Z,47.52
2023-05-24T21:39:52.004Z,47.93
2023-05-24T21:42:18.721Z,47.57
2023-05-24T21:44:45.460Z,47.69
2023-05-24T21:47:12.376Z,48.13
2023-05-24T21:49:39.214Z,48.35
2023-05-24T21:52:05.931Z,48.39
2023-05-24T21:54:32.629Z,48.60
2023-05-24T21:56:59.419Z,48.69
2023-05-24T21:59:26.184Z,48.66
2023-05-24T22:01:52.934Z,48.88
2023-05-24T22:04:19.775Z,49.10
2023-05-24T22:06:46.530Z,49.40
2023-05-24T22:09:13.636Z,49.44
2023-05-24T22:11:41.358Z,49.12
2023-05-24T22:14:08.375Z,49.34
2023-05-24T22:16:35.159Z,49.33
2023-05-24T22:19:03.661Z,49.67
2023-05-24T22:21:33.413Z,49.75
2023-05-24T22:24:00.650Z,49.64
2023-05-24T22:26:30.632Z,49.87
2023-05-24T22:29:00.834Z,49.88
2023-05-24T22:31:29.537Z,50.18
2023-05-24T22:34:00.973Z,50.47
2023-05-24T22:36:35.148Z,50.91
2023-05-24T22:39:01.995Z,51.20
2023-05-24T22:41:28.882Z,51.89
2023-05-24T22:43:56.948Z,51.70
2023-05-24T22:46:24.295Z,52.03
2023-05-24T22:48:52.289Z,52.29
2023-05-24T22:51:22.590Z,52.43
2023-05-24T22:53:49.515Z,52.44
2023-05-24T22:56:17.889Z,52.32
2023-05-24T22:58:44.677Z,52.54
2023-05-24T23:01:11.571Z,52.46
2023-05-24T23:03:38.448Z,53.07
2023-05-24T23:06:05.638Z,53.06
2023-05-24T23:08:32.978Z,53.21
2023-05-24T23:11:00.217Z,53.19
2023-05-24T23:13:33.300Z,53.08
2023-05-24T23:16:00.697Z,52.68
2023-05-24T23:18:27.984Z,52.92
2023-05-24T23:20:56.050Z,52.79
2023-05-24T23:23:23.947Z,52.93
2023-05-24T23:25:51.144Z,53.08
2023-05-24T23:28:17.950Z,53.09
2023-05-24T23:30:44.759Z,53.27
2023-05-24T23:33:11.681Z,53.30
2023-05-24T23:35:39.666Z,53.57
2023-05-24T23:38:06.737Z,53.42
2023-05-24T23:40:34.435Z,53.66
2023-05-24T23:43:01.251Z,54.25
2023-05-24T23:45:28.014Z,53.89
2023-05-24T23:47:55.045Z,53.76
2023-05-24T23:50:22.548Z,54.16
2023-05-24T23:52:49.793Z,54.33
2023-05-24T23:55:17.140Z,54.12
2023-05-24T23:57:45.811Z,54.47
